M I D A S
Marine Information and Data Acquisition System
Tripno 1869 of the Zeeleeuw from 2010-04-27 06:24:28 to 2010-04-27 13:59:42
Back to CruiseResearch ActivitiesStationsMapUnderway DataData graphs

EquipmentUnitsComments
TimeDGPSUTC
LatitudeDGPSDM.mWGS84
LongitudeDGPSDM.mWGS84
SpeedMeteo Stationm/sRelative wind speed
DirectionMeteo StationdegRelative wind direction
TemperatureMeteo Stationdeg CelciusAir temperature
PressureMeteo StationPaAtmospheric pressure
HumidityMeteo Station%Relative humidity
Missing or incorrect values are displayed as -999
Metereological data collected by the RV Zeeleeuw from 2010-04-27 05:51:42 to 2010-04-27 14:10:25
Time Latitude Longitude Speed Direction Temperature Pressure Humidity
2010-04-27 05:52 51°13.662 2°55.96 -999 5 7.9 102750 39
2010-04-27 05:53 51°13.662 2°55.96 -999 351 8 102750 40
2010-04-27 05:54 51°13.662 2°55.96 -999 5 8 102750 40
2010-04-27 05:55 51°13.662 2°55.96 -999 3 8 102750 40
2010-04-27 05:56 51°13.663 2°55.96 -999 352 8 102740 40
2010-04-27 05:57 51°13.663 2°55.959 -999 360 8.1 102750 40
2010-04-27 05:58 51°13.663 2°55.959 -999 358 8 102750 40
2010-04-27 05:59 51°13.663 2°55.96 -999 348 8 102750 40
2010-04-27 06:00 51°13.663 2°55.96 -999 356 8.1 102750 38
2010-04-27 06:01 51°13.663 2°55.961 -999 344 8.1 102750 40
2010-04-27 06:02 51°13.663 2°55.96 -999 352 8.1 102750 40
2010-04-27 06:03 51°13.663 2°55.96 -999 264 -999 -999 -999
2010-04-27 06:04 51°13.662 2°55.959 0.1 344 8.1 102750 40
2010-04-27 06:05 51°13.662 2°55.959 -999 355 8.1 102750 40
2010-04-27 06:06 51°13.662 2°55.959 -999 17 8.1 102750 40
2010-04-27 06:07 51°13.662 2°55.959 0.3 348 8 102750 40
2010-04-27 06:08 51°13.662 2°55.959 -999 16 8.1 102750 40
2010-04-27 06:09 51°13.662 2°55.959 -999 358 8.1 102750 40
2010-04-27 06:10 51°13.662 2°55.959 0.1 -999 8.2 102750 40
2010-04-27 06:11 51°13.662 2°55.959 -999 -999 8.2 102750 40
2010-04-27 06:12 51°13.662 2°55.959 -999 12 8.2 102750 40
2010-04-27 06:13 51°13.662 2°55.96 -999 12 8.2 102750 40
2010-04-27 06:14 51°13.662 2°55.961 -999 15 8.2 102750 40
2010-04-27 06:15 51°13.662 2°55.961 -999 14 8.2 102750 40
2010-04-27 06:16 51°13.662 2°55.96 -999 29 8.3 102750 40
2010-04-27 06:17 51°13.662 2°55.96 -999 355 8.3 102750 40
2010-04-27 06:18 51°13.661 2°55.961 -999 10 8.4 102750 40
2010-04-27 06:19 51°13.661 2°55.96 -999 18 8.4 102750 40
2010-04-27 06:20 51°13.662 2°55.958 -999 29 8.4 102750 40
2010-04-27 06:21 51°13.68 2°55.879 1.5 44 8.4 102750 40
2010-04-27 06:22 51°13.69 2°55.785 1.6 55 8.4 102760 38
2010-04-27 06:23 51°13.695 2°55.769 -999 54 8.5 102760 40
2010-04-27 06:24 51°13.691 2°55.754 0.9 56 8.6 102760 40
2010-04-27 06:25 51°13.744 2°55.715 1.7 305 8.8 102760 41
2010-04-27 06:26 51°13.846 2°55.623 2.1 304 8.8 102760 39
2010-04-27 06:27 51°13.97 2°55.535 2 332 8.8 102760 38
2010-04-27 06:28 51°14.104 2°55.44 2.2 331 8.9 102760 42
2010-04-27 06:29 51°14.242 2°55.326 2.4 323 8.9 102750 43
2010-04-27 06:30 51°14.384 2°55.188 3.6 327 9 102760 40
2010-04-27 06:31 51°14.548 2°55.014 5.9 303 9.3 102750 40
2010-04-27 06:32 51°14.721 2°54.778 4.9 302 9.5 102750 39
2010-04-27 06:33 51°14.905 2°54.563 4.9 307 9.5 102750 42
2010-04-27 06:34 51°15.014 2°54.275 7.1 306 9.4 102750 42
2010-04-27 06:35 51°14.865 2°54.021 8 330 9.4 102740 39
2010-04-27 06:36 51°14.64 2°53.884 7.7 330 9.3 102750 41
2010-04-27 06:37 51°14.407 2°53.792 7.7 330 9.3 102750 39
2010-04-27 06:38 51°14.207 2°53.595 7.9 326 9.2 102750 41
2010-04-27 06:39 51°14.057 2°53.289 8.1 326 9.2 102760 40
2010-04-27 06:40 51°13.881 2°53.012 8.1 324 9.2 102750 40
2010-04-27 06:41 51°13.738 2°52.687 7.9 323 9.2 102750 40
2010-04-27 06:42 51°13.599 2°52.354 7.4 306 9.2 102750 41
2010-04-27 06:43 51°13.468 2°52.01 8.5 301 9.2 102740 39
2010-04-27 06:44 51°13.34 2°51.66 8.1 308 9.1 102750 40
2010-04-27 06:45 51°13.205 2°51.316 7.8 305 9.1 102740 41
2010-04-27 06:46 51°13.073 2°50.971 8.2 307 9.1 102750 39
2010-04-27 06:47 51°12.938 2°50.629 7.6 303 9.1 102740 39
2010-04-27 06:48 51°12.805 2°50.285 8.1 305 9.2 102750 41
2010-04-27 06:49 51°12.675 2°49.938 7.7 307 9.2 102750 41
2010-04-27 06:50 51°12.549 2°49.589 7.6 306 9.2 102750 39
2010-04-27 06:51 51°12.459 2°49.207 7.3 323 9.3 102750 39
2010-04-27 06:52 51°12.38 2°48.814 7.3 323 9.4 102750 39
2010-04-27 06:53 51°12.3 2°48.426 7.7 324 9.4 102760 41
2010-04-27 06:54 51°12.219 2°48.039 7.2 323 9.5 102750 39
2010-04-27 06:55 51°12.14 2°47.652 7 307 9.5 102750 40
2010-04-27 06:56 51°12.074 2°47.258 7.2 324 9.6 102750 41
2010-04-27 06:57 51°12.002 2°46.865 7.8 306 9.6 102760 40
2010-04-27 06:58 51°11.934 2°46.471 7.3 325 9.6 102760 42
2010-04-27 06:59 51°11.874 2°46.071 7.6 326 9.7 102760 41
2010-04-27 07:00 51°11.817 2°45.671 7.6 304 9.7 102760 42
2010-04-27 07:01 51°11.763 2°45.286 6.5 302 9.8 102770 39
2010-04-27 07:02 51°11.723 2°45.036 3.9 305 9.8 102770 39
2010-04-27 07:03 51°11.711 2°44.871 2.8 307 9.8 102780 43
2010-04-27 07:04 51°11.717 2°44.744 2.6 303 9.8 102790 39
2010-04-27 07:05 51°11.717 2°44.635 2.4 306 9.8 102790 37
2010-04-27 07:06 51°11.712 2°44.535 2.4 306 9.8 102790 43
2010-04-27 07:07 51°11.706 2°44.44 2.2 308 9.8 102790 38
2010-04-27 07:08 51°11.702 2°44.348 1.7 307 9.9 102790 38
2010-04-27 07:09 51°11.697 2°44.258 1.9 310 9.9 102790 39
2010-04-27 07:10 51°11.693 2°44.17 2.1 304 9.9 102790 43
2010-04-27 07:11 51°11.688 2°44.085 2.2 307 10 102790 42
2010-04-27 07:12 51°11.682 2°44.006 2 308 10 102800 38
2010-04-27 07:13 51°11.676 2°43.93 2.1 306 10.1 102800 38
2010-04-27 07:14 51°11.671 2°43.856 2 309 10.1 102800 42
2010-04-27 07:15 51°11.666 2°43.784 1.7 304 10.2 102800 41
2010-04-27 07:16 51°11.66 2°43.713 2 310 10.2 102800 40
2010-04-27 07:17 51°11.655 2°43.643 1.8 303 10.3 102810 43
2010-04-27 07:18 51°11.648 2°43.573 1.7 303 10.3 102800 39
2010-04-27 07:19 51°11.642 2°43.505 1.6 301 10.4 102810 38
2010-04-27 07:20 51°11.637 2°43.436 1.5 302 10.5 102800 40
2010-04-27 07:21 51°11.635 2°43.367 1.4 307 10.6 102800 42
2010-04-27 07:22 51°11.647 2°43.305 1.5 308 10.6 102800 38
2010-04-27 07:23 51°11.671 2°43.264 -999 306 10.7 102800 43
2010-04-27 07:24 51°11.7 2°43.245 -999 306 10.7 102800 41
2010-04-27 07:25 51°11.73 2°43.228 -999 306 10.7 102800 41
2010-04-27 07:26 51°11.753 2°43.204 -999 306 10.7 102800 41
2010-04-27 07:27 51°11.769 2°43.176 -999 306 10.7 102800 41
2010-04-27 07:28 51°11.778 2°43.145 -999 306 10.7 102810 41
2010-04-27 07:29 51°11.782 2°43.114 -999 306 10.7 102810 39
2010-04-27 07:30 51°11.783 2°43.083 -999 306 10.7 102810 41
2010-04-27 07:31 51°11.781 2°43.055 -999 306 10.7 102810 40
2010-04-27 07:32 51°11.777 2°43.027 -999 306 10.8 102810 41
2010-04-27 07:33 51°11.772 2°43.003 -999 306 10.8 102810 41
2010-04-27 07:34 51°11.766 2°42.98 -999 306 10.8 102800 41
2010-04-27 07:35 51°11.76 2°42.958 -999 54 10.8 102810 41
2010-04-27 07:36 51°11.753 2°42.938 -999 54 10.8 102810 41
2010-04-27 07:37 51°11.747 2°42.92 -999 54 10.8 102810 39
2010-04-27 07:38 51°11.751 2°42.883 0.1 306 10.8 102810 41
2010-04-27 07:39 51°11.742 2°42.811 2.1 302 10.9 102800 42
2010-04-27 07:40 51°11.702 2°42.726 2.8 325 10.8 102800 43
2010-04-27 07:41 51°11.641 2°42.604 3.8 305 10.7 102800 39
2010-04-27 07:42 51°11.573 2°42.46 3.8 302 10.7 102800 40
2010-04-27 07:43 51°11.508 2°42.28 5.1 327 10.7 102790 39
2010-04-27 07:44 51°11.42 2°42.091 4.6 329 10.7 102790 39
2010-04-27 07:45 51°11.316 2°41.869 6.5 327 10.7 102790 41
2010-04-27 07:46 51°11.199 2°41.615 6.5 328 10.6 102790 41
2010-04-27 07:47 51°11.079 2°41.356 7.1 329 10.6 102790 42
2010-04-27 07:48 51°10.96 2°41.095 6.9 328 10.6 102790 42
2010-04-27 07:49 51°10.84 2°40.834 7.1 329 10.6 102790 41
2010-04-27 07:50 51°10.732 2°40.556 7.2 301 10.5 102790 39
2010-04-27 07:51 51°10.627 2°40.27 7.2 329 10.5 102790 39
2010-04-27 07:52 51°10.523 2°39.981 6.9 330 10.5 102790 42
2010-04-27 07:53 51°10.419 2°39.692 7.3 329 10.5 102790 41
2010-04-27 07:54 51°10.314 2°39.405 6.7 330 10.4 102800 40
2010-04-27 07:55 51°10.211 2°39.118 7.8 330 10.4 102800 39
2010-04-27 07:56 51°10.107 2°38.832 7.3 331 10.4 102800 39
2010-04-27 07:57 51°10.003 2°38.546 7.5 331 10.4 102800 39
2010-04-27 07:58 51°9.875 2°38.288 7.6 334 10.4 102800 40
2010-04-27 07:59 51°9.763 2°38.079 4.7 334 10.4 102800 40
2010-04-27 08:00 51°9.681 2°37.92 4.2 335 10.4 102800 39
2010-04-27 08:01 51°9.609 2°37.777 3.8 333 10.4 102810 38
2010-04-27 08:02 51°9.54 2°37.642 3.7 336 10.5 102810 42
2010-04-27 08:03 51°9.487 2°37.551 2.1 352 10.5 102810 39
2010-04-27 08:04 51°9.482 2°37.521 1.5 15 10.4 102810 38
2010-04-27 08:05 51°9.48 2°37.496 1.6 11 10.5 102810 43
2010-04-27 08:06 51°9.477 2°37.473 1.9 18 10.5 102810 40
2010-04-27 08:07 51°9.472 2°37.45 1.5 22 10.5 102820 42
2010-04-27 08:08 51°9.465 2°37.428 1.7 28 10.6 102820 38
2010-04-27 08:09 51°9.457 2°37.407 1.5 26 10.6 102820 40
2010-04-27 08:10 51°9.449 2°37.386 1.5 24 10.6 102820 39
2010-04-27 08:11 51°9.44 2°37.365 1.5 27 10.6 102820 43
2010-04-27 08:13 51°9.428 2°37.339 1.8 34 10.6 102820 43
2010-04-27 08:14 51°9.418 2°37.318 1.6 37 10.6 102820 40
2010-04-27 08:15 51°9.404 2°37.316 0.3 83 10.6 102820 39
2010-04-27 08:16 51°9.457 2°37.492 1.7 28 10.8 102820 39
2010-04-27 08:17 51°9.5 2°37.548 1.8 22 10.9 102820 40
2010-04-27 08:18 51°9.511 2°37.53 1.6 24 11 102820 41
2010-04-27 08:19 51°9.515 2°37.502 1.5 21 11.1 102830 40
2010-04-27 08:20 51°9.517 2°37.473 1.6 23 11.1 102820 39
2010-04-27 08:21 51°9.518 2°37.444 1.5 20 11.1 102830 42
2010-04-27 08:22 51°9.518 2°37.417 1.7 20 11.1 102830 38
2010-04-27 08:23 51°9.519 2°37.392 1.7 23 11.2 102830 38
2010-04-27 08:24 51°9.519 2°37.369 1.7 27 11.2 102820 40
2010-04-27 08:25 51°9.519 2°37.349 1.8 21 11.2 102820 44
2010-04-27 08:26 51°9.519 2°37.332 1.8 27 11.2 102820 43
2010-04-27 08:27 51°9.52 2°37.315 1.7 251 11.3 102820 40
2010-04-27 08:28 51°9.521 2°37.302 2 256 11.3 102820 39
2010-04-27 08:29 51°9.522 2°37.29 2.1 254 11.4 102820 39
2010-04-27 08:30 51°9.522 2°37.279 2.4 255 11.4 102820 39
2010-04-27 08:31 51°9.522 2°37.269 1.8 259 11.4 102820 38
2010-04-27 08:32 51°9.521 2°37.261 1.8 260 11.4 102820 40
2010-04-27 08:33 51°9.52 2°37.252 1.6 258 11.3 102830 40
2010-04-27 08:34 51°9.527 2°37.254 1.7 260 11.3 102820 43
2010-04-27 08:35 51°9.531 2°37.302 -999 24 11.2 102820 41
2010-04-27 08:36 51°9.511 2°37.38 -999 24 11.2 102820 41
2010-04-27 08:37 51°9.502 2°37.48 -999 253 11.2 102820 41
2010-04-27 08:38 51°9.487 2°37.585 -999 26 11.3 102820 40
2010-04-27 08:39 51°9.469 2°37.633 0.1 21 11.3 102820 41
2010-04-27 08:40 51°9.461 2°37.655 -999 24 11.2 102820 40
2010-04-27 08:41 51°9.454 2°37.672 -999 24 11.1 102820 41
2010-04-27 08:42 51°9.447 2°37.684 -999 24 11.1 102820 40
2010-04-27 08:43 51°9.443 2°37.694 -999 24 11 102830 41
2010-04-27 08:44 51°9.437 2°37.701 -999 24 11 102820 41
2010-04-27 08:45 51°9.432 2°37.707 -999 24 11 102820 41
2010-04-27 08:46 51°9.427 2°37.71 -999 265 11.1 102820 40
2010-04-27 08:47 51°9.422 2°37.712 -999 265 11.1 102820 41
2010-04-27 08:48 51°9.417 2°37.713 -999 262 11.2 102820 41
2010-04-27 08:49 51°9.412 2°37.713 -999 262 11.3 102820 41
2010-04-27 08:50 51°9.408 2°37.713 -999 263 11.3 102820 41
2010-04-27 08:51 51°9.403 2°37.713 -999 263 11.3 102820 41
2010-04-27 08:52 51°9.398 2°37.713 -999 262 11.4 102820 41
2010-04-27 08:53 51°9.392 2°37.713 -999 262 11.4 102820 41
2010-04-27 08:54 51°9.387 2°37.713 -999 262 11.4 102820 40
2010-04-27 08:55 51°9.381 2°37.714 -999 263 11.4 102820 41
2010-04-27 08:56 51°9.376 2°37.716 -999 270 11.5 102820 41
2010-04-27 08:57 51°9.371 2°37.72 -999 266 11.5 102820 41
2010-04-27 08:58 51°9.365 2°37.724 -999 266 11.5 102820 41
2010-04-27 08:59 51°9.361 2°37.729 -999 263 11.5 102820 41
2010-04-27 09:00 51°9.356 2°37.735 -999 264 11.5 102820 41
2010-04-27 09:01 51°9.374 2°37.756 2.1 321 11.5 102820 42
2010-04-27 09:02 51°9.418 2°37.693 3 339 11.5 102820 40
2010-04-27 09:03 51°9.45 2°37.575 2.7 336 11.3 102820 43
2010-04-27 09:04 51°9.489 2°37.515 0.3 338 11.4 102820 42
2010-04-27 09:05 51°9.497 2°37.504 -999 355 11.4 102810 41
2010-04-27 09:06 51°9.5 2°37.496 -999 2 11.3 102820 41
2010-04-27 09:07 51°9.501 2°37.489 -999 3 11.3 102820 41
2010-04-27 09:08 51°9.501 2°37.485 -999 4 11.3 102820 41
2010-04-27 09:09 51°9.502 2°37.483 -999 3 11.2 102820 41
2010-04-27 09:10 51°9.503 2°37.481 -999 1 11.1 102820 40
2010-04-27 09:11 51°9.503 2°37.482 -999 357 11.1 102820 41
2010-04-27 09:12 51°9.505 2°37.484 -999 353 11 102820 41
2010-04-27 09:13 51°9.508 2°37.487 -999 343 10.9 102820 41
2010-04-27 09:14 51°9.51 2°37.492 -999 341 10.9 102830 41
2010-04-27 09:15 51°9.514 2°37.498 -999 350 11 102830 42
2010-04-27 09:16 51°9.519 2°37.506 -999 343 10.9 102830 41
2010-04-27 09:17 51°9.524 2°37.515 -999 339 11 102830 42
2010-04-27 09:18 51°9.529 2°37.525 -999 345 11 102830 41
2010-04-27 09:19 51°9.535 2°37.537 -999 341 11.1 102830 42
2010-04-27 09:20 51°9.542 2°37.55 -999 339 11.1 102830 42
2010-04-27 09:21 51°9.548 2°37.565 -999 332 11.2 102830 42
2010-04-27 09:22 51°9.556 2°37.58 -999 333 11.3 102830 42
2010-04-27 09:23 51°9.565 2°37.598 -999 335 11.4 102830 42
2010-04-27 09:24 51°9.575 2°37.618 -999 335 11.5 102830 42
2010-04-27 09:25 51°9.585 2°37.639 -999 335 11.6 102830 42
2010-04-27 09:26 51°9.609 2°37.635 1.1 343 11.6 102830 40
2010-04-27 09:27 51°9.598 2°37.574 0.2 340 11.5 102830 42
2010-04-27 09:28 51°9.524 2°37.55 1.5 335 11.4 102830 39
2010-04-27 09:29 51°9.449 2°37.522 0.2 343 11.5 102830 42
2010-04-27 09:30 51°9.426 2°37.524 -999 1 11.6 102830 42
2010-04-27 09:31 51°9.407 2°37.539 -999 7 11.5 102830 42
2010-04-27 09:32 51°9.392 2°37.558 -999 7 11.5 102830 42
2010-04-27 09:33 51°9.38 2°37.577 -999 24 11.6 102830 42
2010-04-27 09:34 51°9.371 2°37.597 -999 24 11.6 102830 41
2010-04-27 09:35 51°9.365 2°37.617 -999 19 11.7 102830 42
2010-04-27 09:36 51°9.361 2°37.639 -999 32 11.8 102830 42
2010-04-27 09:37 51°9.359 2°37.662 -999 35 11.8 102830 42
2010-04-27 09:38 51°9.358 2°37.686 -999 35 11.9 102830 42
2010-04-27 09:39 51°9.358 2°37.709 -999 35 11.9 102830 42
2010-04-27 09:40 51°9.36 2°37.733 -999 30 11.9 102830 42
2010-04-27 09:41 51°9.362 2°37.756 -999 24 11.8 102830 42
2010-04-27 09:42 51°9.366 2°37.779 -999 31 11.8 102830 41
2010-04-27 09:43 51°9.371 2°37.803 -999 31 11.8 102830 42
2010-04-27 09:44 51°9.376 2°37.827 -999 27 11.8 102830 42
2010-04-27 09:45 51°9.38 2°37.852 -999 26 11.7 102830 42
2010-04-27 09:46 51°9.386 2°37.878 -999 28 11.7 102830 42
2010-04-27 09:47 51°9.392 2°37.904 -999 23 11.7 102830 42
2010-04-27 09:48 51°9.399 2°37.932 -999 24 11.7 102830 42
2010-04-27 09:49 51°9.399 2°37.942 -999 6 11.7 102830 42
2010-04-27 09:50 51°9.38 2°37.834 2.9 343 11.6 102830 39
2010-04-27 09:51 51°9.417 2°37.684 2.9 344 11.4 102830 40
2010-04-27 09:52 51°9.447 2°37.57 2.2 345 11.4 102830 41
2010-04-27 09:53 51°9.454 2°37.467 1.6 349 11.3 102830 41
2010-04-27 09:54 51°9.472 2°37.434 1.5 343 11.2 102830 41
2010-04-27 09:55 51°9.499 2°37.444 -999 345 11.1 102840 42
2010-04-27 09:56 51°9.525 2°37.466 -999 345 11.2 102840 42
2010-04-27 09:57 51°9.549 2°37.493 -999 342 11.1 102840 42
2010-04-27 09:58 51°9.571 2°37.522 -999 345 11.2 102840 41
2010-04-27 09:59 51°9.59 2°37.555 -999 337 11.1 102840 42
2010-04-27 10:00 51°9.608 2°37.589 -999 341 11.2 102840 42
2010-04-27 10:01 51°9.625 2°37.626 -999 344 11.3 102840 42
2010-04-27 10:02 51°9.641 2°37.664 -999 350 11.4 102840 42
2010-04-27 10:03 51°9.657 2°37.704 -999 347 11.3 102840 42
2010-04-27 10:04 51°9.672 2°37.745 -999 348 11.3 102840 42
2010-04-27 10:05 51°9.686 2°37.786 -999 348 11.1 102840 42
2010-04-27 10:06 51°9.7 2°37.828 -999 353 11.1 102840 41
2010-04-27 10:07 51°9.714 2°37.872 -999 358 11.1 102830 42
2010-04-27 10:08 51°9.727 2°37.916 -999 1 11 102840 42
2010-04-27 10:09 51°9.739 2°37.96 -999 355 11 102830 42
2010-04-27 10:10 51°9.752 2°38.004 -999 355 10.9 102830 42
2010-04-27 10:11 51°9.764 2°38.048 -999 3 10.9 102830 42
2010-04-27 10:12 51°9.775 2°38.092 -999 6 10.9 102830 42
2010-04-27 10:13 51°9.787 2°38.137 -999 6 10.9 102830 42
2010-04-27 10:14 51°9.798 2°38.182 -999 10 10.9 102840 41
2010-04-27 10:15 51°9.81 2°38.228 -999 11 11 102840 42
2010-04-27 10:16 51°9.822 2°38.275 -999 15 11 102830 42
2010-04-27 10:17 51°9.835 2°38.322 -999 22 11.2 102840 43
2010-04-27 10:18 51°9.847 2°38.37 -999 21 11.2 102840 42
2010-04-27 10:19 51°9.86 2°38.418 -999 19 11.3 102840 42
2010-04-27 10:20 51°9.873 2°38.467 -999 19 11.3 102830 42
2010-04-27 10:21 51°9.885 2°38.515 -999 17 11.4 102830 42
2010-04-27 10:22 51°9.897 2°38.562 0.7 16 11.4 102830 41
2010-04-27 10:23 51°9.915 2°38.544 1.9 358 11.3 102830 41
2010-04-27 10:24 51°9.918 2°38.473 2 355 11.2 102830 39
2010-04-27 10:25 51°9.911 2°38.382 2 353 11.1 102830 40
2010-04-27 10:26 51°9.886 2°38.295 1.8 354 11 102830 44
2010-04-27 10:27 51°9.853 2°38.21 1.8 357 10.9 102840 44
2010-04-27 10:28 51°9.822 2°38.123 2 357 10.9 102830 44
2010-04-27 10:29 51°9.792 2°38.034 1.6 356 10.8 102840 42
2010-04-27 10:30 51°9.763 2°37.946 1.7 359 10.8 102840 43
2010-04-27 10:31 51°9.734 2°37.858 1.9 357 10.8 102840 44
2010-04-27 10:32 51°9.705 2°37.771 1.8 358 10.8 102840 41
2010-04-27 10:33 51°9.676 2°37.685 1.8 1 10.8 102840 40
2010-04-27 10:34 51°9.648 2°37.598 2.1 360 10.8 102840 41
2010-04-27 10:35 51°9.62 2°37.512 2.1 1 10.7 102840 40
2010-04-27 10:36 51°9.593 2°37.425 1.7 -999 10.7 102840 41
2010-04-27 10:37 51°9.564 2°37.339 1.7 5 10.7 102840 44
2010-04-27 10:38 51°9.534 2°37.251 1.7 2 10.7 102840 44
2010-04-27 10:39 51°9.504 2°37.163 1.6 4 10.7 102840 40
2010-04-27 10:40 51°9.474 2°37.076 1.7 4 10.6 102840 43
2010-04-27 10:41 51°9.444 2°36.988 1.7 3 10.6 102840 44
2010-04-27 10:42 51°9.415 2°36.9 1.3 3 10.6 102830 45
2010-04-27 10:43 51°9.385 2°36.812 1.7 -999 10.6 102840 42
2010-04-27 10:44 51°9.357 2°36.726 1.3 3 10.6 102840 40
2010-04-27 10:45 51°9.328 2°36.639 1.5 2 10.7 102840 44
2010-04-27 10:46 51°9.3 2°36.551 1.2 2 10.7 102830 43
2010-04-27 10:47 51°9.272 2°36.463 1.6 1 10.7 102840 44
2010-04-27 10:48 51°9.244 2°36.375 1.7 360 10.7 102830 40
2010-04-27 10:49 51°9.216 2°36.288 1.5 4 10.6 102830 40
2010-04-27 10:50 51°9.188 2°36.201 1.5 3 10.6 102830 41
2010-04-27 10:51 51°9.162 2°36.113 1.9 359 10.6 102830 41
2010-04-27 10:52 51°9.14 2°36.022 1.8 2 10.6 102830 42
2010-04-27 10:53 51°9.117 2°35.932 1.6 359 10.6 102830 44
2010-04-27 10:54 51°9.094 2°35.843 1.8 359 10.6 102830 39
2010-04-27 10:55 51°9.071 2°35.755 1.8 1 10.6 102830 40
2010-04-27 10:56 51°9.049 2°35.665 1.7 1 10.6 102830 45
2010-04-27 10:57 51°9.026 2°35.576 1.7 3 10.6 102820 44
2010-04-27 10:58 51°9.003 2°35.485 1.7 3 10.5 102820 45
2010-04-27 10:59 51°8.98 2°35.393 1.9 358 10.6 102820 45
2010-04-27 11:00 51°8.957 2°35.3 1.7 359 10.5 102820 43
2010-04-27 11:01 51°8.932 2°35.205 1.9 360 10.6 102820 45
2010-04-27 11:02 51°8.909 2°35.11 2.1 356 10.6 102820 40
2010-04-27 11:03 51°8.884 2°35.013 2.5 354 10.6 102820 43
2010-04-27 11:04 51°8.856 2°34.914 2.4 354 10.6 102820 45
2010-04-27 11:05 51°8.833 2°34.812 2.6 356 10.6 102820 45
2010-04-27 11:06 51°8.811 2°34.709 2.4 1 10.6 102820 41
2010-04-27 11:07 51°8.79 2°34.607 2.3 358 10.5 102820 42
2010-04-27 11:08 51°8.769 2°34.504 2.2 358 10.5 102830 44
2010-04-27 11:09 51°8.749 2°34.401 2.4 356 10.5 102830 41
2010-04-27 11:10 51°8.729 2°34.298 2.3 357 10.5 102820 40
2010-04-27 11:11 51°8.709 2°34.195 2.4 356 10.5 102830 42
2010-04-27 11:12 51°8.689 2°34.091 2.9 355 10.5 102820 44
2010-04-27 11:13 51°8.67 2°33.988 2.5 355 10.5 102820 44
2010-04-27 11:14 51°8.651 2°33.885 2.8 354 10.4 102820 45
2010-04-27 11:15 51°8.633 2°33.784 3 358 10.4 102830 40
2010-04-27 11:16 51°8.616 2°33.684 2.8 358 10.3 102820 42
2010-04-27 11:17 51°8.588 2°33.597 2.7 358 10.3 102820 41
2010-04-27 11:18 51°8.543 2°33.532 2.1 359 10.3 102830 43
2010-04-27 11:19 51°8.495 2°33.466 2.3 358 10.3 102830 42
2010-04-27 11:20 51°8.452 2°33.391 2.3 357 10.3 102820 44
2010-04-27 11:21 51°8.405 2°33.316 2.2 1 10.2 102820 41
2010-04-27 11:22 51°8.358 2°33.24 1.8 1 10.2 102820 45
2010-04-27 11:23 51°8.311 2°33.163 2 2 10.2 102820 41
2010-04-27 11:24 51°8.265 2°33.086 1.6 6 10.2 102820 45
2010-04-27 11:25 51°8.235 2°33.038 1.8 14 10.2 102820 46
2010-04-27 11:26 51°8.222 2°33.008 2.1 15 10.2 102820 44
2010-04-27 11:27 51°8.222 2°32.992 2.3 14 10.3 102820 40
2010-04-27 11:28 51°8.229 2°32.986 2.3 14 10.3 102820 46
2010-04-27 11:29 51°8.239 2°32.988 2.2 13 10.3 102820 43
2010-04-27 11:30 51°8.252 2°32.996 2.2 9 10.4 102820 41
2010-04-27 11:31 51°8.266 2°33.01 2.5 11 10.3 102820 41
2010-04-27 11:32 51°8.281 2°33.028 2.2 13 10.3 102820 45
2010-04-27 11:33 51°8.297 2°33.05 2.1 12 10.4 102820 41
2010-04-27 11:34 51°8.313 2°33.074 2.1 10 10.4 102820 43
2010-04-27 11:35 51°8.329 2°33.1 2.3 10 10.4 102820 42
2010-04-27 11:36 51°8.346 2°33.127 2.3 9 10.3 102820 42
2010-04-27 11:37 51°8.363 2°33.156 1.6 9 10.3 102820 41
2010-04-27 11:38 51°8.379 2°33.186 1.7 5 10.4 102810 44
2010-04-27 11:39 51°8.396 2°33.218 2 2 10.3 102820 45
2010-04-27 11:40 51°8.412 2°33.249 2 359 10.3 102810 44
2010-04-27 11:41 51°8.439 2°33.261 2.6 346 10.3 102810 45
2010-04-27 11:42 51°8.489 2°33.257 3.9 337 10.4 102810 40
2010-04-27 11:43 51°8.584 2°33.271 4.1 329 10.5 102810 45
2010-04-27 11:44 51°8.667 2°33.33 3.8 324 10.6 102810 45
2010-04-27 11:45 51°8.735 2°33.416 3.4 319 10.8 102810 42
2010-04-27 11:46 51°8.787 2°33.523 3.1 28 10.9 102810 46
2010-04-27 11:47 51°8.817 2°33.646 2.5 29 10.9 102810 42
2010-04-27 11:48 51°8.826 2°33.769 2.2 249 10.9 102810 42
2010-04-27 11:49 51°8.823 2°33.888 2.3 252 11.1 102810 46
2010-04-27 11:50 51°8.822 2°34.009 2.2 250 11.2 102810 42
2010-04-27 11:51 51°8.816 2°34.126 1.9 254 11.3 102810 42
2010-04-27 11:52 51°8.799 2°34.233 0.1 260 11.4 102810 41
2010-04-27 11:53 51°8.779 2°34.334 -999 260 11.4 102810 43
2010-04-27 11:54 51°8.76 2°34.433 1.5 258 11.4 102810 43
2010-04-27 11:55 51°8.739 2°34.529 -999 260 11.5 102810 43
2010-04-27 11:56 51°8.714 2°34.62 -999 262 11.6 102810 43
2010-04-27 11:57 51°8.686 2°34.706 -999 259 11.6 102810 43
2010-04-27 11:58 51°8.661 2°34.798 -999 257 11.6 102800 42
2010-04-27 11:59 51°8.642 2°34.897 0.1 252 11.7 102800 43
2010-04-27 12:00 51°8.63 2°35.002 -999 246 11.8 102800 43
2010-04-27 12:01 51°8.631 2°35.112 -999 25 11.8 102800 42
2010-04-27 12:02 51°8.647 2°35.22 1 20 11.9 102800 43
2010-04-27 12:03 51°8.676 2°35.323 2.6 28 11.8 102800 41
2010-04-27 12:04 51°8.716 2°35.416 2.4 316 11.7 102790 42
2010-04-27 12:05 51°8.762 2°35.505 2.4 317 11.7 102800 40
2010-04-27 12:06 51°8.804 2°35.602 2.6 29 11.7 102800 40
2010-04-27 12:07 51°8.842 2°35.705 2.4 22 11.7 102790 45
2010-04-27 12:08 51°8.879 2°35.809 2.5 22 11.7 102790 41
2010-04-27 12:09 51°8.914 2°35.915 2.4 315 11.6 102790 45
2010-04-27 12:10 51°8.949 2°36.019 1.5 319 11.6 102790 41
2010-04-27 12:11 51°8.985 2°36.123 2.4 315 11.7 102790 42
2010-04-27 12:12 51°9.019 2°36.227 2.6 316 11.7 102790 43
2010-04-27 12:13 51°9.055 2°36.331 2.6 316 11.7 102790 40
2010-04-27 12:14 51°9.09 2°36.435 2.7 316 11.7 102790 40
2010-04-27 12:15 51°9.125 2°36.54 2.6 22 11.7 102790 44
2010-04-27 12:16 51°9.16 2°36.645 2.4 26 11.7 102790 40
2010-04-27 12:17 51°9.196 2°36.75 2.4 24 11.7 102790 41
2010-04-27 12:18 51°9.231 2°36.855 2.4 315 11.7 102790 45
2010-04-27 12:19 51°9.267 2°36.96 2.4 24 11.7 102790 41
2010-04-27 12:20 51°9.296 2°37.07 2.2 21 11.7 102790 45
2010-04-27 12:21 51°9.31 2°37.185 1.8 21 11.7 102790 41
2010-04-27 12:22 51°9.311 2°37.295 1.5 23 11.7 102800 42
2010-04-27 12:23 51°9.296 2°37.392 0.3 251 11.9 102800 42
2010-04-27 12:24 51°9.272 2°37.477 -999 257 12 102800 43
2010-04-27 12:25 51°9.24 2°37.546 -999 25 12 102800 43
2010-04-27 12:26 51°9.204 2°37.57 -999 24 12.2 102800 43
2010-04-27 12:27 51°9.184 2°37.545 1.7 1 12 102790 45
2010-04-27 12:28 51°9.185 2°37.522 1.5 3 11.8 102790 44
2010-04-27 12:29 51°9.189 2°37.513 1.5 7 11.7 102790 40
2010-04-27 12:30 51°9.193 2°37.514 1.7 10 11.6 102790 41
2010-04-27 12:31 51°9.196 2°37.517 1.5 6 11.5 102790 43
2010-04-27 12:32 51°9.206 2°37.47 2.9 350 11.5 102790 40
2010-04-27 12:33 51°9.256 2°37.311 4.3 341 11.4 102780 44
2010-04-27 12:34 51°9.328 2°37.241 3.1 334 11.5 102790 45
2010-04-27 12:35 51°9.391 2°37.259 2.3 328 11.6 102790 41
2010-04-27 12:36 51°9.439 2°37.302 2.2 321 11.8 102790 45
2010-04-27 12:37 51°9.479 2°37.351 2.1 319 11.9 102780 46
2010-04-27 12:38 51°9.512 2°37.398 2.2 318 12 102780 45
2010-04-27 12:39 51°9.541 2°37.44 2.2 319 12 102780 42
2010-04-27 12:40 51°9.565 2°37.473 1.9 324 12.1 102780 42
2010-04-27 12:41 51°9.585 2°37.502 1.7 324 12.1 102780 43
2010-04-27 12:42 51°9.604 2°37.53 1.7 327 12.3 102780 46
2010-04-27 12:43 51°9.62 2°37.556 1.4 324 12.4 102780 44
2010-04-27 12:44 51°9.636 2°37.584 1.3 326 12.5 102780 43
2010-04-27 12:45 51°9.649 2°37.612 0.9 325 12.6 102780 42
2010-04-27 12:46 51°9.662 2°37.641 -999 325 12.7 102790 43
2010-04-27 12:47 51°9.674 2°37.671 -999 323 12.8 102780 43
2010-04-27 12:48 51°9.685 2°37.7 -999 321 12.7 102790 43
2010-04-27 12:49 51°9.695 2°37.731 -999 319 12.7 102790 43
2010-04-27 12:50 51°9.704 2°37.762 -999 25 12.8 102790 43
2010-04-27 12:51 51°9.713 2°37.793 -999 25 12.8 102790 43
2010-04-27 12:52 51°9.72 2°37.824 -999 25 12.8 102780 43
2010-04-27 12:53 51°9.728 2°37.855 -999 248 12.8 102780 43
2010-04-27 12:54 51°9.734 2°37.886 -999 253 12.9 102780 42
2010-04-27 12:55 51°9.741 2°37.918 1.8 257 12.8 102780 40
2010-04-27 12:56 51°9.746 2°37.948 1.4 260 12.8 102780 41
2010-04-27 12:57 51°9.752 2°37.978 -999 263 12.7 102780 42
2010-04-27 12:58 51°9.757 2°38.009 1.3 267 12.5 102790 41
2010-04-27 12:59 51°9.763 2°38.072 1.5 246 12.4 102790 39
2010-04-27 13:00 51°9.764 2°38.258 3.1 26 12.4 102790 43
2010-04-27 13:01 51°9.765 2°38.498 3.3 22 12.2 102790 44
2010-04-27 13:02 51°9.772 2°38.744 3.6 23 12.1 102790 43
2010-04-27 13:03 51°9.806 2°38.988 3.9 27 11.9 102780 39
2010-04-27 13:04 51°9.84 2°39.235 3.8 21 11.9 102780 40
2010-04-27 13:05 51°9.872 2°39.485 3.6 23 11.8 102780 40
2010-04-27 13:06 51°9.904 2°39.743 3.9 27 11.7 102780 39
2010-04-27 13:07 51°9.936 2°40.001 4.1 21 11.7 102780 40
2010-04-27 13:08 51°9.969 2°40.27 4.9 317 11.7 102780 42
2010-04-27 13:09 51°10.011 2°40.617 5.7 319 11.7 102780 40
2010-04-27 13:10 51°10.057 2°40.992 6 320 11.8 102780 39
2010-04-27 13:11 51°10.101 2°41.367 5.8 320 11.9 102780 40
2010-04-27 13:12 51°10.138 2°41.745 6 319 11.9 102780 43
2010-04-27 13:13 51°10.158 2°42.125 5.2 317 12 102780 44
2010-04-27 13:14 51°10.133 2°42.398 2.9 23 12 102780 45
2010-04-27 13:15 51°10.136 2°42.583 2.3 29 12 102790 44
2010-04-27 13:16 51°10.139 2°42.693 1.8 253 12 102790 43
2010-04-27 13:17 51°10.142 2°42.713 2 257 12.1 102790 43
2010-04-27 13:18 51°10.146 2°42.729 1.4 259 12.3 102790 45
2010-04-27 13:19 51°10.149 2°42.747 0.9 262 12.4 102790 41
2010-04-27 13:20 51°10.153 2°42.767 0.1 266 12.4 102790 42
2010-04-27 13:21 51°10.157 2°42.787 0.9 265 12.4 102790 43
2010-04-27 13:22 51°10.161 2°42.809 1.3 267 12.4 102790 40
2010-04-27 13:23 51°10.165 2°42.831 1.4 268 12.4 102780 45
2010-04-27 13:24 51°10.17 2°42.888 1.8 244 12.4 102780 41
2010-04-27 13:25 51°10.215 2°43.082 4.3 318 12.4 102780 40
2010-04-27 13:26 51°10.314 2°43.377 6.7 320 12.4 102780 40
2010-04-27 13:27 51°10.432 2°43.71 7.1 321 12.4 102780 41
2010-04-27 13:28 51°10.55 2°44.05 7.6 322 12.4 102780 42
2010-04-27 13:29 51°10.678 2°44.379 7.5 319 12.4 102780 40
2010-04-27 13:30 51°10.8 2°44.712 7.6 321 12.4 102780 42
2010-04-27 13:31 51°10.946 2°45.02 7.8 321 12.3 102780 42
2010-04-27 13:32 51°11.09 2°45.328 7.6 319 12.3 102770 43
2010-04-27 13:33 51°11.219 2°45.651 8 320 12.3 102770 40
2010-04-27 13:34 51°11.345 2°45.977 7.9 319 12.3 102770 44
2010-04-27 13:35 51°11.473 2°46.302 8 320 12.3 102770 42
2010-04-27 13:36 51°11.603 2°46.63 8.1 320 12.2 102770 42
2010-04-27 13:37 51°11.732 2°46.959 8.3 320 12.2 102770 42
2010-04-27 13:38 51°11.861 2°47.288 9.2 321 12.2 102770 43
2010-04-27 13:39 51°11.991 2°47.617 8.6 320 12.2 102770 43
2010-04-27 13:40 51°12.121 2°47.942 7.9 320 12.2 102770 42
2010-04-27 13:41 51°12.25 2°48.269 8.4 320 12.1 102770 43
2010-04-27 13:42 51°12.38 2°48.599 8.8 319 12.1 102770 43
2010-04-27 13:43 51°12.511 2°48.929 8.7 319 12 102770 41
2010-04-27 13:44 51°12.643 2°49.261 9.1 319 12 102770 40
2010-04-27 13:45 51°12.757 2°49.611 8.4 317 12 102770 40
2010-04-27 13:46 51°12.87 2°49.961 8.1 315 12 102770 43
2010-04-27 13:47 51°12.983 2°50.311 8.3 316 12 102760 40
2010-04-27 13:48 51°13.112 2°50.648 8.8 317 12 102770 43
2010-04-27 13:49 51°13.245 2°50.979 8.2 320 12.1 102760 43
2010-04-27 13:50 51°13.378 2°51.309 8.9 319 12.1 102760 40
2010-04-27 13:51 51°13.511 2°51.637 8.7 319 12.2 102770 41
2010-04-27 13:52 51°13.643 2°51.964 8.2 319 12.2 102770 43
2010-04-27 13:53 51°13.775 2°52.288 8.3 319 12.2 102770 42
2010-04-27 13:54 51°13.908 2°52.614 7.7 321 12.2 102770 43
2010-04-27 13:55 51°14.044 2°52.938 8.7 321 12.2 102770 41
2010-04-27 13:56 51°14.181 2°53.258 8.9 322 12.2 102770 43
2010-04-27 13:57 51°14.316 2°53.58 8.7 321 12.2 102760 41
2010-04-27 13:58 51°14.438 2°53.918 8.8 318 12.2 102770 42
2010-04-27 13:59 51°14.525 2°54.282 8 319 12.1 102770 41
2010-04-27 14:00 51°14.595 2°54.652 7.5 316 12.1 102770 40
2010-04-27 14:01 51°14.535 2°55.007 5.3 20 12.1 102770 40
2010-04-27 14:02 51°14.353 2°55.21 3.8 322 12 102780 41
2010-04-27 14:03 51°14.187 2°55.362 2.7 320 12.1 102780 44
2010-04-27 14:04 51°14.052 2°55.466 1.6 320 12.2 102780 41
2010-04-27 14:05 51°13.931 2°55.552 0.2 327 12.3 102780 42
2010-04-27 14:06 51°13.82 2°55.637 -999 24 12.5 102780 41
2010-04-27 14:08 51°13.737 2°55.743 0.3 251 12.6 102780 43
2010-04-27 14:09 51°13.689 2°55.849 -999 251 12.8 102780 42
2010-04-27 14:10 51°13.666 2°55.939 2.4 256 12.9 102780 40